Amesbury, Massachusetts
Current Conditions -  °F | °C
As of 7:54 PM on Saturday 20 Dec 2014 (Local Time) from KLWM Reporting Station
Overcast Overcast  
Wind Chill: -4°   Ceiling: 3600
Heat Index:   Visibility: 10mi
Dew Point: -3°   Wind: 8mph
Humidity: 79%   Direction: 20°NNE
Pressure: 30.33"   Gusts: NA
Location:  42.86°N, 70.93°W
Report Text: KLWM 210054Z 02007KT 10SM OVC036 00/M03 A3033 RMK AO2 SLP271 T00001033
Loading
Personal Weather Stations






























Interactive Weather Map New forecast layout! Learn more

10-Day Weather Forecast

Advertisements
Track Severe Weather on mobile